createdAt,value
2022-08-12T00:02:03.656Z,0.82
2022-08-12T00:04:52.738Z,0.70
2022-08-12T00:07:39.182Z,0.70
2022-08-12T00:10:25.537Z,1.05
2022-08-12T00:13:12.849Z,0.80
2022-08-12T00:16:02.732Z,1.20
2022-08-12T00:18:49.073Z,1.00
2022-08-12T00:21:37.426Z,1.00
2022-08-12T00:24:24.594Z,0.80
2022-08-12T00:27:10.308Z,0.88
2022-08-12T00:29:55.626Z,0.80
2022-08-12T00:32:56.798Z,0.90
2022-08-12T00:35:42.625Z,0.70
2022-08-12T00:38:29.946Z,0.90
2022-08-12T00:41:17.169Z,0.88
2022-08-12T00:43:44.255Z,0.80
2022-08-12T00:46:29.575Z,1.02
2022-08-12T00:48:57.220Z,1.23
2022-08-12T00:51:45.436Z,1.08
2022-08-12T00:54:12.671Z,0.85
2022-08-12T00:56:39.872Z,0.70
2022-08-12T00:59:08.148Z,1.15
2022-08-12T01:02:02.075Z,0.95
2022-08-12T01:04:46.155Z,1.00
2022-08-12T01:07:33.247Z,0.80
2022-08-12T01:10:29.465Z,1.10
2022-08-12T01:15:51.548Z,1.05
2022-08-12T01:18:21.349Z,1.00
2022-08-12T01:20:53.665Z,0.75
2022-08-12T01:23:53.488Z,0.90
2022-08-12T01:26:23.659Z,0.80
2022-08-12T01:28:55.280Z,1.00
2022-08-12T01:31:25.741Z,1.10
2022-08-12T01:33:55.457Z,0.77
2022-08-12T01:36:25.889Z,1.00
2022-08-12T01:38:56.442Z,0.80
2022-08-12T01:41:28.499Z,0.77
2022-08-12T01:44:00.539Z,0.80
2022-08-12T01:47:06.118Z,0.90
2022-08-12T01:50:00.634Z,0.95
2022-08-12T01:52:30.878Z,0.95
2022-08-12T01:54:59.418Z,0.90
2022-08-12T01:57:58.636Z,0.70
2022-08-12T02:00:55.397Z,0.90
2022-08-12T02:03:30.883Z,0.73
2022-08-12T02:06:24.704Z,0.80
2022-08-12T02:09:17.488Z,0.82
2022-08-12T02:12:13.347Z,0.70
2022-08-12T02:14:52.591Z,0.80
2022-08-12T02:17:55.598Z,1.15
2022-08-12T02:20:15.567Z,1.02
2022-08-12T02:22:45.388Z,0.88
2022-08-12T02:25:25.060Z,1.00
2022-08-12T02:27:53.956Z,1.00
2022-08-12T02:30:24.249Z,0.82
2022-08-12T02:32:53.887Z,1.00
2022-08-12T02:35:27.080Z,1.17
2022-08-12T02:38:00.850Z,0.90
2022-08-12T02:40:29.439Z,0.90
2022-08-12T02:43:02.566Z,0.90
2022-08-12T02:45:38.874Z,0.70
2022-08-12T02:48:10.648Z,1.00
2022-08-12T02:50:45.387Z,0.93
2022-08-12T02:53:12.658Z,1.10
2022-08-12T02:55:39.429Z,0.93
2022-08-12T02:58:12.381Z,0.90
2022-08-12T03:00:43.545Z,0.95
2022-08-12T03:03:13.015Z,0.93
2022-08-12T03:06:01.480Z,1.10
2022-08-12T03:08:37.263Z,1.10
2022-08-12T03:11:14.385Z,1.00
2022-08-12T03:13:46.887Z,1.40
2022-08-12T03:16:14.813Z,0.82
2022-08-12T03:18:45.721Z,0.98
2022-08-12T03:21:15.915Z,1.05
2022-08-12T03:23:45.478Z,0.98
2022-08-12T03:28:51.374Z,0.90
2022-08-12T03:31:30.222Z,1.13
2022-08-12T03:34:10.400Z,1.07
2022-08-12T03:36:38.664Z,1.10
2022-08-12T03:39:18.265Z,1.00
2022-08-12T03:42:07.751Z,1.02
2022-08-12T03:45:11.494Z,1.15
2022-08-12T03:48:35.550Z,1.10
2022-08-12T03:51:21.825Z,1.10
2022-08-12T03:54:10.636Z,1.00
2022-08-12T03:59:41.915Z,1.15
2022-08-12T04:02:14.578Z,1.05
2022-08-12T04:04:45.300Z,1.15
2022-08-12T04:07:13.770Z,1.15
2022-08-12T04:09:43.950Z,1.10
2022-08-12T04:12:32.702Z,0.90
2022-08-12T04:15:00.977Z,1.02
2022-08-12T04:17:28.637Z,1.10
2022-08-12T04:19:59.336Z,1.13
2022-08-12T04:22:29.794Z,1.08
2022-08-12T04:25:01.468Z,0.98
2022-08-12T04:27:32.259Z,0.90
2022-08-12T04:30:16.871Z,1.10
2022-08-12T04:32:50.161Z,1.10
2022-08-12T04:35:18.247Z,0.90
2022-08-12T04:37:59.780Z,1.10
2022-08-12T04:40:29.757Z,1.00
2022-08-12T04:42:57.039Z,1.05
2022-08-12T04:45:23.896Z,0.70
2022-08-12T04:47:50.812Z,1.00
2022-08-12T04:50:34.717Z,0.90
2022-08-12T04:53:06.827Z,0.80
2022-08-12T04:55:37.836Z,0.93
2022-08-12T04:58:04.773Z,0.93
2022-08-12T05:00:31.695Z,0.93
2022-08-12T05:02:58.579Z,0.90
2022-08-12T05:05:25.469Z,1.02
2022-08-12T05:07:54.830Z,0.82
2022-08-12T05:13:12.505Z,1.00
2022-08-12T05:16:04.739Z,0.95
2022-08-12T05:18:29.269Z,0.90
2022-08-12T05:20:58.776Z,1.40
2022-08-12T05:23:25.953Z,1.10
2022-08-12T05:25:56.421Z,0.90
2022-08-12T05:28:24.868Z,1.00
2022-08-12T05:30:51.874Z,1.10
2022-08-12T05:33:18.676Z,1.00
2022-08-12T05:35:50.277Z,0.90
2022-08-12T05:38:37.640Z,1.10
2022-08-12T05:41:19.139Z,1.00
2022-08-12T05:44:00.373Z,1.20
2022-08-12T05:46:29.155Z,0.90
2022-08-12T05:48:56.621Z,1.00
2022-08-12T05:51:25.486Z,0.77
2022-08-12T05:54:06.794Z,1.30
2022-08-12T05:56:36.316Z,0.93
2022-08-12T05:59:07.421Z,0.90
2022-08-12T06:02:09.837Z,1.02
2022-08-12T06:04:21.913Z,0.77
2022-08-12T06:07:01.366Z,0.90
2022-08-12T06:09:31.979Z,1.38
2022-08-12T06:12:05.954Z,1.00
2022-08-12T06:14:38.772Z,1.15
2022-08-12T06:17:08.610Z,0.98
2022-08-12T06:20:27.045Z,0.90
2022-08-12T06:22:22.744Z,0.98
2022-08-12T06:24:49.980Z,0.80
2022-08-12T06:27:18.919Z,0.90
2022-08-12T06:30:07.924Z,1.20
2022-08-12T06:32:32.955Z,0.82
2022-08-12T06:35:26.456Z,1.10
2022-08-12T06:37:57.123Z,1.02
2022-08-12T06:40:43.297Z,1.00
2022-08-12T06:43:10.153Z,1.10
2022-08-12T06:45:45.792Z,1.65
2022-08-12T06:48:13.417Z,1.50
2022-08-12T06:50:40.453Z,1.30
2022-08-12T06:53:09.361Z,1.30
2022-08-12T06:55:36.315Z,1.15
2022-08-12T06:58:07.981Z,1.20
2022-08-12T07:00:36.587Z,0.85
2022-08-12T07:03:16.512Z,0.98
2022-08-12T07:05:50.760Z,1.20
2022-08-12T07:08:17.827Z,0.88
2022-08-12T07:10:57.434Z,1.00
2022-08-12T07:15:55.523Z,0.90
2022-08-12T07:18:28.768Z,0.90
2022-08-12T07:20:56.258Z,1.20
2022-08-12T07:23:22.943Z,1.00
2022-08-12T07:25:49.713Z,1.40
2022-08-12T07:28:19.220Z,1.20
2022-08-12T07:33:16.916Z,1.10
2022-08-12T07:35:48.520Z,1.35
2022-08-12T07:38:31.368Z,1.00
2022-08-12T07:41:03.999Z,0.98
2022-08-12T07:43:32.760Z,1.27
2022-08-12T07:46:01.119Z,1.00
2022-08-12T07:48:28.145Z,1.10
2022-08-12T07:50:55.134Z,1.15
2022-08-12T07:53:22.398Z,1.33
2022-08-12T07:55:49.175Z,0.88
2022-08-12T07:58:15.983Z,1.10
2022-08-12T08:00:43.156Z,1.02
2022-08-12T08:03:13.099Z,1.23
2022-08-12T08:05:49.733Z,1.50
2022-08-12T08:08:19.495Z,1.50
2022-08-12T08:10:47.788Z,1.50
2022-08-12T08:13:15.398Z,1.20
2022-08-12T08:16:02.434Z,1.20
2022-08-12T08:18:31.410Z,1.10
2022-08-12T08:20:58.073Z,1.40
2022-08-12T08:23:56.321Z,1.50
2022-08-12T08:26:26.936Z,1.65
2022-08-12T08:28:54.070Z,1.23
2022-08-12T08:31:21.610Z,1.27
2022-08-12T08:34:04.334Z,1.20
2022-08-12T08:36:35.265Z,1.30
2022-08-12T08:39:04.384Z,1.55
2022-08-12T08:42:18.740Z,1.15
2022-08-12T08:44:38.273Z,1.35
2022-08-12T08:47:06.032Z,1.35
2022-08-12T08:49:32.976Z,0.95
2022-08-12T08:52:40.030Z,1.50
2022-08-12T08:55:05.566Z,1.20
2022-08-12T08:57:44.123Z,1.23
2022-08-12T09:00:16.852Z,1.25
2022-08-12T09:02:49.196Z,1.20
2022-08-12T09:05:26.125Z,1.50
2022-08-12T09:08:09.038Z,1.27
2022-08-12T09:10:45.139Z,1.30
2022-08-12T09:16:16.999Z,1.00
2022-08-12T09:18:52.383Z,1.30
2022-08-12T09:21:19.731Z,1.40
2022-08-12T09:23:59.789Z,1.05
2022-08-12T09:26:38.172Z,1.30
2022-08-12T09:30:11.757Z,1.30
2022-08-12T09:32:11.623Z,1.40
2022-08-12T09:34:56.753Z,1.10
2022-08-12T09:37:26.704Z,1.10
2022-08-12T09:40:04.999Z,1.20
2022-08-12T09:43:17.305Z,1.20
2022-08-12T09:46:19.841Z,1.02
2022-08-12T09:48:36.664Z,1.10
2022-08-12T09:51:16.708Z,1.20
2022-08-12T09:54:09.209Z,1.02
2022-08-12T09:56:57.098Z,1.30
2022-08-12T10:00:15.920Z,1.05
2022-08-12T10:02:52.943Z,1.10
2022-08-12T10:04:59.616Z,1.10
2022-08-12T10:07:29.143Z,1.23
2022-08-12T10:10:24.189Z,1.30
2022-08-12T10:13:35.023Z,1.25
2022-08-12T10:16:05.070Z,0.85
2022-08-12T10:18:35.812Z,1.30
2022-08-12T10:21:11.086Z,1.10
2022-08-12T10:23:41.020Z,0.90
2022-08-12T10:26:38.995Z,1.15
2022-08-12T10:30:01.526Z,1.08
2022-08-12T10:32:45.464Z,1.20
2022-08-12T10:35:10.563Z,1.08
2022-08-12T10:38:35.613Z,1.00
2022-08-12T10:40:31.496Z,1.23
2022-08-12T10:43:18.422Z,1.10
2022-08-12T10:45:49.312Z,1.10
2022-08-12T10:48:33.536Z,1.20
2022-08-12T10:51:51.629Z,1.08
2022-08-12T10:54:00.797Z,1.10
2022-08-12T10:56:34.587Z,1.00
2022-08-12T10:59:02.193Z,1.40
2022-08-12T11:04:17.245Z,1.20
2022-08-12T11:04:35.988Z,1.30
2022-08-12T11:08:34.163Z,1.50
2022-08-12T11:10:00.035Z,1.60
2022-08-12T11:12:55.609Z,1.60
2022-08-12T11:15:20.793Z,1.13
2022-08-12T11:17:53.677Z,1.15
2022-08-12T11:20:22.145Z,1.20
2022-08-12T11:22:59.462Z,1.10
2022-08-12T11:25:55.927Z,1.00
2022-08-12T11:28:15.028Z,1.17
2022-08-12T11:30:43.584Z,1.20
2022-08-12T11:33:12.110Z,1.20
2022-08-12T11:35:54.031Z,1.40
2022-08-12T11:38:24.412Z,0.90
2022-08-12T11:40:51.761Z,1.20
2022-08-12T11:43:20.126Z,1.08
2022-08-12T11:45:47.707Z,1.00
2022-08-12T11:48:20.522Z,1.00
2022-08-12T11:50:55.295Z,1.10
2022-08-12T11:53:57.414Z,0.93
2022-08-12T11:56:11.462Z,1.00
2022-08-12T12:00:45.553Z,0.90
2022-08-12T12:02:01.141Z,0.82
2022-08-12T12:04:12.131Z,1.00
2022-08-12T12:06:38.789Z,0.80
2022-08-12T12:09:07.997Z,1.08
2022-08-12T12:11:48.543Z,0.73
2022-08-12T12:14:16.391Z,0.88
2022-08-12T12:16:49.947Z,1.00
2022-08-12T12:19:17.809Z,0.90
2022-08-12T12:21:48.017Z,0.82
2022-08-12T12:24:21.327Z,0.82
2022-08-12T12:27:00.837Z,1.30
2022-08-12T12:30:18.336Z,1.02
2022-08-12T12:32:29.048Z,1.00
2022-08-12T12:35:14.637Z,0.73
2022-08-12T12:38:03.590Z,1.42
2022-08-12T12:40:34.472Z,0.82
2022-08-12T12:43:05.238Z,0.73
2022-08-12T12:54:29.155Z,0.95
2022-08-12T12:56:55.967Z,1.05
2022-08-12T12:59:54.840Z,0.80
2022-08-12T13:02:11.319Z,0.85
2022-08-12T13:04:38.209Z,1.00
2022-08-12T13:07:06.510Z,0.80
2022-08-12T13:09:36.412Z,0.90
2022-08-12T13:12:08.203Z,1.00
2022-08-12T13:14:35.132Z,0.90
2022-08-12T13:17:02.817Z,1.00
2022-08-12T13:19:37.428Z,0.98
2022-08-12T13:22:20.475Z,0.90
2022-08-12T13:24:55.574Z,0.90
2022-08-12T13:27:35.583Z,1.08
2022-08-12T13:30:06.922Z,0.90
2022-08-12T13:32:40.626Z,1.10
2022-08-12T13:35:20.204Z,1.30
2022-08-12T13:37:56.592Z,1.00
2022-08-12T13:40:26.563Z,0.80
2022-08-12T13:42:57.914Z,1.00
2022-08-12T13:45:30.305Z,0.82
2022-08-12T13:48:00.118Z,0.80
2022-08-12T13:50:32.856Z,1.00
2022-08-12T13:53:01.332Z,1.40
2022-08-12T13:55:49.859Z,0.90
2022-08-12T13:58:26.639Z,1.02
2022-08-12T14:00:55.796Z,1.00
2022-08-12T14:05:59.483Z,0.70
2022-08-12T14:08:34.245Z,0.95
2022-08-12T14:11:02.205Z,1.13
2022-08-12T14:14:04.803Z,0.95
2022-08-12T14:16:46.736Z,1.10
2022-08-12T14:19:21.766Z,0.90
2022-08-12T14:22:00.725Z,1.23
2022-08-12T14:24:40.320Z,0.98
2022-08-12T14:27:10.606Z,0.90
2022-08-12T14:30:05.520Z,0.90
2022-08-12T14:32:31.251Z,0.88
2022-08-12T14:37:57.279Z,0.63
2022-08-12T14:40:18.679Z,0.77
2022-08-12T14:42:52.620Z,0.80
2022-08-12T14:45:22.777Z,0.85
2022-08-12T14:47:53.708Z,0.80
2022-08-12T14:50:57.360Z,0.90
2022-08-12T14:55:05.699Z,0.80
2022-08-12T14:59:23.603Z,0.80
2022-08-12T15:01:52.246Z,0.85
2022-08-12T15:04:26.215Z,0.88
2022-08-12T15:06:53.252Z,0.60
2022-08-12T15:09:29.028Z,0.80
2022-08-12T15:12:03.187Z,0.70
2022-08-12T15:14:30.643Z,0.88
2022-08-12T15:17:00.029Z,0.70
2022-08-12T15:20:11.036Z,0.90
2022-08-12T15:22:39.416Z,0.83
2022-08-12T15:25:07.439Z,0.90
2022-08-12T15:28:05.552Z,0.70
2022-08-12T15:30:31.513Z,0.60
2022-08-12T15:32:59.049Z,0.80
2022-08-12T15:35:38.201Z,0.85
2022-08-12T15:40:46.869Z,0.70
2022-08-12T15:43:51.170Z,0.70
2022-08-12T15:46:04.792Z,0.80
2022-08-12T15:48:32.844Z,0.70
2022-08-12T15:51:02.820Z,0.80
2022-08-12T15:53:53.244Z,0.70
2022-08-12T15:56:29.857Z,1.00
2022-08-12T15:59:00.351Z,0.77
2022-08-12T16:01:35.160Z,0.70
2022-08-12T16:04:05.490Z,1.00
2022-08-12T16:09:56.769Z,0.82
2022-08-12T16:14:39.122Z,0.90
2022-08-12T16:17:08.902Z,0.90
2022-08-12T16:20:03.600Z,1.00
2022-08-12T16:22:29.697Z,0.85
2022-08-12T16:24:56.713Z,0.88
2022-08-12T16:27:25.693Z,1.20
2022-08-12T16:32:31.660Z,0.90
2022-08-12T16:35:00.548Z,3.33
2022-08-12T16:37:32.708Z,4.63
2022-08-12T16:40:06.297Z,1.90
2022-08-12T16:42:42.009Z,1.15
2022-08-12T16:45:21.043Z,0.73
2022-08-12T16:47:58.105Z,0.90
2022-08-12T16:50:30.971Z,0.93
2022-08-12T16:53:02.148Z,0.93
2022-08-12T16:55:42.179Z,1.30
2022-08-12T16:58:27.960Z,1.13
2022-08-12T17:00:55.492Z,1.10
2022-08-12T17:03:28.721Z,0.80
2022-08-12T17:05:57.588Z,0.82
2022-08-12T17:08:29.197Z,0.70
2022-08-12T17:10:56.328Z,0.98
2022-08-12T17:13:26.178Z,0.70
2022-08-12T17:16:04.962Z,0.80
2022-08-12T17:18:43.944Z,0.77
2022-08-12T17:21:40.979Z,1.10
2022-08-12T17:24:15.286Z,0.88
2022-08-12T17:26:49.135Z,0.82
2022-08-12T17:29:31.940Z,1.10
2022-08-12T17:32:07.376Z,0.93
2022-08-12T17:34:54.535Z,1.00
2022-08-12T17:37:21.992Z,1.35
2022-08-12T17:40:13.801Z,0.90
2022-08-12T17:42:38.466Z,0.95
2022-08-12T17:45:18.575Z,0.80
2022-08-12T17:48:05.015Z,0.90
2022-08-12T17:50:38.256Z,0.80
2022-08-12T17:53:07.762Z,0.93
2022-08-12T17:55:43.663Z,1.00
2022-08-12T17:58:12.914Z,1.02
2022-08-12T18:00:45.592Z,1.15
2022-08-12T18:04:14.015Z,1.50
2022-08-12T18:06:13.949Z,1.50
2022-08-12T18:08:53.631Z,1.35
2022-08-12T18:12:03.893Z,2.58
2022-08-12T18:14:32.148Z,1.70
2022-08-12T18:17:00.791Z,2.30
2022-08-12T18:20:03.952Z,3.22
2022-08-12T18:22:22.134Z,4.00
2022-08-12T18:25:00.861Z,4.93
2022-08-12T18:27:43.605Z,3.75
2022-08-12T18:30:13.432Z,2.80
2022-08-12T18:32:58.797Z,3.20
2022-08-12T18:35:47.435Z,3.33
2022-08-12T18:38:20.293Z,3.00
2022-08-12T18:41:09.757Z,3.30
2022-08-12T18:44:00.071Z,3.70
2022-08-12T18:46:35.815Z,3.33
2022-08-12T18:49:19.050Z,3.97
2022-08-12T18:52:02.170Z,3.65
2022-08-12T18:54:33.262Z,3.78
2022-08-12T18:57:03.634Z,3.50
2022-08-12T19:00:01.121Z,3.05
2022-08-12T19:02:23.307Z,3.87
2022-08-12T19:04:53.402Z,4.65
2022-08-12T19:07:23.298Z,2.40
2022-08-12T19:09:59.179Z,3.35
2022-08-12T19:12:57.595Z,2.70
2022-08-12T19:15:30.161Z,3.00
2022-08-12T19:18:01.254Z,3.00
2022-08-12T19:20:30.617Z,2.63
2022-08-12T19:23:02.401Z,3.22
2022-08-12T19:26:01.518Z,3.13
2022-08-12T19:28:29.482Z,2.38
2022-08-12T19:31:15.683Z,2.53
2022-08-12T19:34:06.508Z,2.55
2022-08-12T19:36:34.760Z,2.50
2022-08-12T19:39:02.885Z,2.88
2022-08-12T19:42:00.473Z,2.65
2022-08-12T19:44:29.703Z,2.40
2022-08-12T19:46:57.490Z,3.13
2022-08-12T19:49:27.310Z,3.03
2022-08-12T19:51:55.507Z,2.60
2022-08-12T19:54:23.216Z,2.45
2022-08-12T19:56:58.545Z,2.20
2022-08-12T19:59:43.025Z,2.78
2022-08-12T20:02:34.838Z,3.30
2022-08-12T20:06:03.904Z,2.83
2022-08-12T20:07:56.901Z,1.88
2022-08-12T20:10:35.064Z,2.13
2022-08-12T20:13:18.270Z,1.92
2022-08-12T20:15:58.797Z,2.00
2022-08-12T20:18:44.275Z,1.73
2022-08-12T20:21:16.085Z,1.80
2022-08-12T20:23:59.868Z,2.22
2022-08-12T20:26:28.066Z,1.48
2022-08-12T20:28:55.492Z,2.28
2022-08-12T20:31:22.243Z,2.03
2022-08-12T20:33:55.854Z,1.50
2022-08-12T20:36:41.430Z,2.00
2022-08-12T20:39:37.222Z,2.13
2022-08-12T20:42:02.327Z,1.55
2022-08-12T20:44:34.203Z,1.50
2022-08-12T20:47:11.862Z,1.67
2022-08-12T20:49:46.507Z,3.90
2022-08-12T20:52:25.571Z,1.30
2022-08-12T20:54:57.758Z,0.95
2022-08-12T20:57:25.228Z,1.30
2022-08-12T21:00:14.268Z,1.50
2022-08-12T21:02:50.136Z,1.55
2022-08-12T21:06:09.578Z,1.50
2022-08-12T21:08:26.638Z,2.10
2022-08-12T21:10:54.578Z,1.50
2022-08-12T21:13:26.903Z,1.75
2022-08-12T21:15:59.701Z,1.50
2022-08-12T21:18:28.966Z,1.73
2022-08-12T21:20:58.902Z,1.35
2022-08-12T21:23:31.138Z,1.40
2022-08-12T21:28:58.945Z,1.20
2022-08-12T21:32:36.948Z,1.20
2022-08-12T21:34:19.601Z,1.65
2022-08-12T21:36:49.325Z,1.55
2022-08-12T21:39:21.862Z,1.13
2022-08-12T21:41:53.662Z,1.50
2022-08-12T21:44:23.965Z,1.40
2022-08-12T21:47:20.871Z,1.15
2022-08-12T21:50:03.224Z,1.00
2022-08-12T21:52:35.862Z,1.10
2022-08-12T21:55:19.663Z,1.15
2022-08-12T21:57:53.462Z,1.00
2022-08-12T22:00:31.893Z,1.00
2022-08-12T22:04:03.694Z,1.17
2022-08-12T22:06:31.029Z,1.10
2022-08-12T22:09:16.454Z,0.98
2022-08-12T22:11:49.203Z,1.15
2022-08-12T22:16:54.313Z,1.27
2022-08-12T22:19:22.799Z,1.38
2022-08-12T22:21:53.784Z,1.33
2022-08-12T22:24:27.113Z,1.15
2022-08-12T22:27:28.253Z,1.10
2022-08-12T22:30:16.838Z,1.15
2022-08-12T22:35:56.433Z,1.27
2022-08-12T22:38:26.735Z,1.73
2022-08-12T22:41:01.892Z,1.23
2022-08-12T22:43:59.770Z,1.20
2022-08-12T22:46:52.068Z,1.25
2022-08-12T22:49:37.256Z,1.20
2022-08-12T22:52:18.538Z,1.30
2022-08-12T22:55:02.725Z,1.10
2022-08-12T22:57:49.200Z,1.30
2022-08-12T23:00:24.232Z,1.60
2022-08-12T23:02:58.369Z,1.10
2022-08-12T23:05:56.772Z,1.20
2022-08-12T23:08:17.909Z,1.05
2022-08-12T23:10:45.802Z,1.20
2022-08-12T23:13:42.955Z,0.95
2022-08-12T23:16:28.488Z,1.20
2022-08-12T23:19:01.588Z,1.50
2022-08-12T23:22:04.091Z,0.95
2022-08-12T23:24:26.075Z,1.00
2022-08-12T23:27:13.138Z,1.10
2022-08-12T23:29:43.987Z,0.80
2022-08-12T23:32:35.953Z,1.20
2022-08-12T23:35:06.409Z,0.90
2022-08-12T23:37:47.149Z,1.00
2022-08-12T23:40:22.437Z,0.93
2022-08-12T23:42:51.205Z,1.00
2022-08-12T23:45:20.208Z,1.10
2022-08-12T23:47:50.850Z,1.00
2022-08-12T23:50:23.148Z,1.13
2022-08-12T23:52:53.252Z,0.90
2022-08-12T23:55:23.461Z,0.73
2022-08-12T23:58:22.497Z,1.00
